Time;durP1;ratioP1;P1;durP2;ratioP2;P2;SDS_P1;SDS_P2;PMS_P1;PMS_P2;Temp;Humidity;BMP_temperature;BMP_pressure;BME280_temperature;BME280_humidity;BME280_pressure;Samples;Min_cycle;Max_cycle;Signal;HPM_P1;HPM_P2
2022/01/11 00:02:51;;;;;;;;;;;;;;;-2.29;89.34;100973.78;5613981;31;34102;-82
2022/01/11 00:05:59;;;;;;;;;;;;;;;-2.17;88.26;100970.88;5613800;31;34850;-82
2022/01/11 00:09:18;;;;;;;;;;;;;;;-2.15;88.69;100984.62;5613349;31;34686;-82
2022/01/11 00:12:20;;;;;;;;;;;;;;;-2.27;88.84;100980.63;5613842;31;34592;-83
2022/01/11 00:15:27;;;;;;;;;;;;;;;-2.35;89.46;100972.22;5600043;31;35242;-82
2022/01/11 00:18:36;;;;;;;;;;;;;;;-2.35;89.04;100977.41;5614183;31;34441;-82
2022/01/11 00:21:46;;;;;;;;;;;;;;;-2.33;88.86;100980.81;5619141;31;34541;-82
2022/01/11 00:24:49;;;;;;;;;;;;;;;-2.21;87.74;100983.06;5618483;31;35622;-82
2022/01/11 00:27:51;;;;;;;;;;;;;;;-2.21;87.91;100984.78;5621839;31;35584;-82
2022/01/11 00:30:55;;;;;;;;;;;;;;;-2.28;88.70;100989.28;5617766;31;34713;-82
2022/01/11 00:34:13;;;;;;;;;;;;;;;-2.34;88.48;100989.47;5617616;31;34471;-82
2022/01/11 00:37:17;;;;;;;;;;;;;;;-2.28;88.47;100993.66;5617997;31;34132;-82
2022/01/11 00:40:19;;;;;;;;;;;;;;;-2.30;88.34;100996.25;5616496;31;34500;-82
2022/01/11 00:43:26;;;;;;;;;;;;;;;-2.33;87.95;100996.37;5618105;31;33530;-82
2022/01/11 00:46:35;;;;;;;;;;;;;;;-2.52;89.15;101007.19;5618407;31;35077;-82
2022/01/11 00:49:40;;;;;;;;;;;;;;;-2.69;89.86;101014.56;5621009;31;35368;-82
2022/01/11 00:52:42;;;;;;;;;;;;;;;-2.83;90.51;101013.16;5618739;31;34960;-82
2022/01/11 00:55:48;;;;;;;;;;;;;;;-2.74;90.28;101021.59;5616954;31;34298;-82
2022/01/11 00:58:50;;;;;;;;;;;;;;;-2.75;90.39;101030.25;5617085;31;34374;-82
2022/01/11 01:01:56;;;;;;;;;;;;;;;-2.76;89.98;101034.59;5618269;31;34544;-82
2022/01/11 01:04:58;;;;;;;;;;;;;;;-2.50;87.60;101035.69;5617084;31;35516;-82
2022/01/11 01:08:05;;;;;;;;;;;;;;;-2.39;87.25;101037.97;5616777;31;35454;-82
2022/01/11 01:11:10;;;;;;;;;;;;;;;-2.24;85.11;101042.78;5616569;31;34958;-82
2022/01/11 01:14:13;;;;;;;;;;;;;;;-2.36;85.20;101040.50;5617555;31;34225;-83
2022/01/11 01:17:16;;;;;;;;;;;;;;;-2.44;85.75;101045.03;5616470;31;34535;-82
2022/01/11 01:20:20;;;;;;;;;;;;;;;-2.36;84.93;101048.28;5616517;31;34420;-82
2022/01/11 01:23:23;;;;;;;;;;;;;;;-2.29;84.42;101046.38;5617982;31;34517;-82
2022/01/11 01:26:26;;;;;;;;;;;;;;;-2.30;84.64;101048.09;5616019;31;34884;-82
2022/01/11 01:29:28;;;;;;;;;;;;;;;-2.10;83.21;101055.34;5617410;31;35171;-82
2022/01/11 01:32:31;;;;;;;;;;;;;;;-1.99;82.24;101057.66;5615364;31;34098;-82
2022/01/11 01:35:39;;;;;;;;;;;;;;;-2.25;83.46;101058.38;5615882;31;34439;-82
2022/01/11 01:38:44;;;;;;;;;;;;;;;-2.28;83.99;101061.03;5617014;31;34344;-82
2022/01/11 01:41:47;;;;;;;;;;;;;;;-2.35;84.17;101057.75;5618512;31;34741;-82
2022/01/11 01:44:50;;;;;;;;;;;;;;;-2.57;84.81;101050.53;5618068;31;35364;-82
2022/01/11 01:47:57;;;;;;;;;;;;;;;-2.78;86.31;101062.25;5617480;31;34660;-82
2022/01/11 01:50:59;;;;;;;;;;;;;;;-2.78;87.75;101062.25;5615804;31;34436;-82
2022/01/11 01:54:02;;;;;;;;;;;;;;;-2.73;87.52;101064.72;5615860;31;34745;-82
2022/01/11 01:57:05;;;;;;;;;;;;;;;-2.81;88.00;101057.16;5617179;31;34309;-82
2022/01/11 02:00:11;;;;;;;;;;;;;;;-2.96;88.31;101054.06;5617270;31;34473;-82
2022/01/11 02:03:15;;;;;;;;;;;;;;;-2.93;89.12;101063.47;5616961;31;34459;-82
2022/01/11 02:06:20;;;;;;;;;;;;;;;-3.02;89.16;101055.94;5615544;31;34355;-82
2022/01/11 02:09:25;;;;;;;;;;;;;;;-3.07;89.85;101060.34;5615906;31;34410;-82
2022/01/11 02:12:30;;;;;;;;;;;;;;;-2.94;87.57;101069.53;5616911;31;34728;-82
2022/01/11 02:15:35;;;;;;;;;;;;;;;-2.82;87.33;101065.84;5615542;31;34556;-82
2022/01/11 02:18:46;;;;;;;;;;;;;;;-2.96;87.57;101071.31;5615622;31;35149;-82
2022/01/11 02:21:49;;;;;;;;;;;;;;;-2.54;84.27;101070.31;5616720;31;34779;-82
2022/01/11 02:24:52;;;;;;;;;;;;;;;-2.66;85.21;101076.66;5616748;31;33397;-82
2022/01/11 02:27:55;;;;;;;;;;;;;;;-2.80;85.69;101069.22;5617565;31;35514;-82
2022/01/11 02:30:59;;;;;;;;;;;;;;;-2.75;84.71;101066.50;5616065;31;34461;-82
2022/01/11 02:34:01;;;;;;;;;;;;;;;-2.85;85.20;101060.72;5617138;31;35428;-82
2022/01/11 02:37:05;;;;;;;;;;;;;;;-2.85;85.52;101064.16;5615448;31;34247;-82
2022/01/11 02:40:11;;;;;;;;;;;;;;;-2.74;84.08;101069.09;5615160;31;35393;-82
2022/01/11 02:43:14;;;;;;;;;;;;;;;-2.75;84.29;101082.06;5614381;31;35470;-82
2022/01/11 02:46:19;;;;;;;;;;;;;;;-2.56;83.98;101069.50;5615627;31;35082;-82
2022/01/11 02:49:22;;;;;;;;;;;;;;;-2.73;83.82;101075.97;5615122;31;34306;-82
2022/01/11 02:52:26;;;;;;;;;;;;;;;-2.87;84.84;101073.69;5615295;31;34745;-82
2022/01/11 02:55:30;;;;;;;;;;;;;;;-3.07;85.94;101075.88;5615248;31;34544;-82
2022/01/11 02:58:34;;;;;;;;;;;;;;;-3.15;87.46;101079.50;5615040;31;34473;-82
2022/01/11 03:01:37;;;;;;;;;;;;;;;-3.12;87.08;101076.88;5617467;31;34648;-82
2022/01/11 03:04:44;;;;;;;;;;;;;;;-3.18;89.08;101084.75;5617071;31;34962;-82
2022/01/11 03:07:47;;;;;;;;;;;;;;;-3.32;89.75;101089.41;5615688;31;35242;-82
2022/01/11 03:10:51;;;;;;;;;;;;;;;-3.15;87.12;101092.47;5615058;31;34657;-82
2022/01/11 03:13:56;;;;;;;;;;;;;;;-2.92;85.67;101085.91;5614702;31;35323;-82
2022/01/11 03:16:58;;;;;;;;;;;;;;;-3.06;87.46;101091.41;5615243;31;34570;-82
2022/01/11 03:20:01;;;;;;;;;;;;;;;-2.82;85.01;101096.91;5615067;31;34740;-82
2022/01/11 03:23:04;;;;;;;;;;;;;;;-2.84;85.10;101099.53;5616001;31;35151;-83
2022/01/11 03:26:07;;;;;;;;;;;;;;;-2.90;85.78;101098.81;5614641;31;34543;-82
2022/01/11 03:29:10;;;;;;;;;;;;;;;-2.93;84.73;101097.16;5615128;31;35138;-82
2022/01/11 03:32:17;;;;;;;;;;;;;;;-3.08;85.96;101100.94;5614039;31;35193;-82
2022/01/11 03:35:38;;;;;;;;;;;;;;;-2.95;85.01;101101.50;5614401;31;36684;-82
2022/01/11 03:38:40;;;;;;;;;;;;;;;-3.01;84.97;101117.19;5614755;31;34359;-82
2022/01/11 03:41:43;;;;;;;;;;;;;;;-2.62;82.88;101109.38;5616265;31;35537;-82
2022/01/11 03:44:47;;;;;;;;;;;;;;;-2.55;81.93;101120.44;5615560;31;35382;-82
2022/01/11 03:47:53;;;;;;;;;;;;;;;-2.66;82.20;101131.06;5616066;31;34277;-82
2022/01/11 03:50:56;;;;;;;;;;;;;;;-2.72;82.94;101133.78;5616167;31;34632;-82
2022/01/11 03:54:14;;;;;;;;;;;;;;;-2.78;83.40;101128.78;5615250;31;36026;-82
2022/01/11 03:57:18;;;;;;;;;;;;;;;-2.66;83.18;101133.66;5618225;31;34204;-82
2022/01/11 04:00:21;;;;;;;;;;;;;;;-2.77;83.91;101130.47;5617776;31;34098;-82
2022/01/11 04:03:24;;;;;;;;;;;;;;;-2.74;82.79;101135.56;5620104;31;34791;-82
2022/01/11 04:06:28;;;;;;;;;;;;;;;-2.95;84.28;101142.94;5618024;31;34681;-82
2022/01/11 04:09:34;;;;;;;;;;;;;;;-3.12;85.22;101144.16;5616557;31;34422;-82
2022/01/11 04:12:36;;;;;;;;;;;;;;;-3.24;86.29;101149.59;5615980;31;34417;-82
2022/01/11 04:15:40;;;;;;;;;;;;;;;-3.38;86.63;101160.25;5616733;31;34340;-82
2022/01/11 04:18:43;;;;;;;;;;;;;;;-3.38;86.20;101155.06;5616947;31;34526;-82
2022/01/11 04:21:46;;;;;;;;;;;;;;;-3.38;85.33;101143.84;5618488;31;35348;-82
2022/01/11 04:24:49;;;;;;;;;;;;;;;-3.18;84.54;101146.88;5618111;31;34537;-82
2022/01/11 04:27:51;;;;;;;;;;;;;;;-3.31;85.73;101150.59;5617011;31;34804;-82
2022/01/11 04:30:58;;;;;;;;;;;;;;;-3.27;84.91;101154.84;5617090;31;33932;-82
2022/01/11 04:34:01;;;;;;;;;;;;;;;-3.06;83.68;101166.50;5616651;31;34047;-82
2022/01/11 04:37:03;;;;;;;;;;;;;;;-2.95;83.37;101168.81;5616922;31;34385;-83
2022/01/11 04:40:13;;;;;;;;;;;;;;;-3.04;84.78;101174.22;5616638;31;35021;-83
2022/01/11 04:43:16;;;;;;;;;;;;;;;-3.26;85.15;101174.66;5617577;31;34996;-82
2022/01/11 04:46:19;;;;;;;;;;;;;;;-3.27;85.25;101180.72;5617256;31;34380;-83
2022/01/11 04:49:22;;;;;;;;;;;;;;;-3.30;85.09;101188.53;5615872;31;35186;-83
2022/01/11 04:52:29;;;;;;;;;;;;;;;-3.44;84.87;101196.56;5616286;31;34074;-83
2022/01/11 04:55:32;;;;;;;;;;;;;;;-3.54;85.70;101190.72;5616613;31;34511;-82
2022/01/11 04:58:36;;;;;;;;;;;;;;;-3.59;85.98;101195.12;5617702;31;34422;-83
2022/01/11 05:01:40;;;;;;;;;;;;;;;-3.75;87.97;101203.16;5618490;31;34193;-83
2022/01/11 05:04:44;;;;;;;;;;;;;;;-3.61;87.87;101208.09;5616334;31;35466;-82
2022/01/11 05:07:46;;;;;;;;;;;;;;;-3.35;86.73;101211.09;5616695;31;34859;-83
2022/01/11 05:10:55;;;;;;;;;;;;;;;-3.36;85.97;101206.78;5618340;31;35169;-82
2022/01/11 05:13:57;;;;;;;;;;;;;;;-3.34;86.80;101216.22;5619938;31;34592;-83
2022/01/11 05:17:00;;;;;;;;;;;;;;;-3.41;85.67;101227.56;5616522;31;34336;-82
2022/01/11 05:20:04;;;;;;;;;;;;;;;-3.30;85.82;101227.34;5616750;31;34439;-83
2022/01/11 05:23:10;;;;;;;;;;;;;;;-3.30;85.17;101232.53;5616366;31;34380;-83
2022/01/11 05:26:12;;;;;;;;;;;;;;;-3.34;86.89;101239.50;5617371;31;34590;-83
2022/01/11 05:29:15;;;;;;;;;;;;;;;-3.37;85.52;101238.72;5616457;31;34583;-83
2022/01/11 05:32:18;;;;;;;;;;;;;;;-3.25;84.84;101248.84;5616600;31;34410;-83
2022/01/11 05:35:23;;;;;;;;;;;;;;;-3.27;85.99;101248.00;5619934;31;34484;-83
2022/01/11 05:38:36;;;;;;;;;;;;;;;-3.38;85.63;101262.88;5618792;31;34215;-83
2022/01/11 05:41:38;;;;;;;;;;;;;;;-3.48;87.61;101265.66;5620335;31;34314;-83
2022/01/11 05:44:42;;;;;;;;;;;;;;;-3.70;88.98;101277.25;5616423;31;34183;-84
2022/01/11 05:47:48;;;;;;;;;;;;;;;-3.81;90.03;101280.00;5615623;31;34524;-82
2022/01/11 05:50:50;;;;;;;;;;;;;;;-3.97;90.90;101284.56;5616426;31;34567;-82
2022/01/11 05:53:54;;;;;;;;;;;;;;;-3.95;90.90;101281.09;5616378;31;34562;-83
2022/01/11 05:56:57;;;;;;;;;;;;;;;-3.91;89.88;101290.50;5611252;31;34413;-83
2022/01/11 06:00:00;;;;;;;;;;;;;;;-3.86;88.17;101287.00;5597568;31;33905;-83
2022/01/11 06:03:04;;;;;;;;;;;;;;;-3.82;88.78;101293.81;5595995;31;34512;-83
2022/01/11 06:06:08;;;;;;;;;;;;;;;-3.93;90.27;101291.41;5583082;31;35071;-83
2022/01/11 06:09:11;;;;;;;;;;;;;;;-4.14;91.73;101292.56;5596208;31;33574;-82
2022/01/11 06:12:14;;;;;;;;;;;;;;;-4.22;93.10;101293.56;5596236;31;34900;-83
2022/01/11 06:15:17;;;;;;;;;;;;;;;-4.31;93.88;101310.91;5595986;31;34668;-82
2022/01/11 06:18:20;;;;;;;;;;;;;;;-4.33;93.45;101315.25;5595458;31;34726;-83
2022/01/11 06:21:26;;;;;;;;;;;;;;;-4.41;93.10;101326.53;5596804;31;34217;-82
2022/01/11 06:24:32;;;;;;;;;;;;;;;-4.46;91.89;101328.34;5598391;31;34527;-82
2022/01/11 06:27:40;;;;;;;;;;;;;;;-4.47;92.70;101331.78;5584600;31;35123;-83
2022/01/11 06:30:49;;;;;;;;;;;;;;;-4.48;91.66;101340.41;5591039;31;34417;-84
2022/01/11 06:33:51;;;;;;;;;;;;;;;-4.47;91.41;101336.97;5595726;31;35135;-84
2022/01/11 06:36:54;;;;;;;;;;;;;;;-4.57;90.98;101345.69;5595971;31;32998;-83
2022/01/11 06:39:57;;;;;;;;;;;;;;;-4.38;89.59;101357.50;5597441;31;36119;-84
2022/01/11 06:43:00;;;;;;;;;;;;;;;-4.23;88.18;101358.19;5596000;31;34491;-83
2022/01/11 06:46:03;;;;;;;;;;;;;;;-4.19;87.87;101365.00;5576946;31;35116;-83
2022/01/11 06:49:05;;;;;;;;;;;;;;;-3.92;86.94;101370.69;5579098;31;34621;-83
2022/01/11 06:52:08;;;;;;;;;;;;;;;-3.86;86.65;101380.91;5576321;32;35000;-84
2022/01/11 06:55:12;;;;;;;;;;;;;;;-3.68;86.19;101378.94;5576772;32;34183;-83
2022/01/11 06:58:16;;;;;;;;;;;;;;;-3.50;85.15;101383.81;5589936;31;34475;-83
2022/01/11 07:01:19;;;;;;;;;;;;;;;-3.53;85.49;101389.03;5579607;32;34539;-82
2022/01/11 07:04:22;;;;;;;;;;;;;;;-3.43;85.20;101389.75;5563086;32;34232;-84
2022/01/11 07:07:26;;;;;;;;;;;;;;;-3.56;86.80;101396.88;5577240;32;34359;-84
2022/01/11 07:10:31;;;;;;;;;;;;;;;-3.54;87.38;101387.31;5576433;32;34646;-84
2022/01/11 07:13:35;;;;;;;;;;;;;;;-3.64;86.74;101388.34;5576962;32;34226;-83
2022/01/11 07:16:38;;;;;;;;;;;;;;;-3.63;87.36;101397.81;5576308;32;34953;-84
2022/01/11 07:19:41;;;;;;;;;;;;;;;-3.72;87.62;101399.69;5601195;31;34761;-84
2022/01/11 07:22:47;;;;;;;;;;;;;;;-3.63;87.84;101397.81;5613032;31;35019;-83
2022/01/11 07:25:50;;;;;;;;;;;;;;;-3.64;87.99;101401.28;5606339;31;34407;-83
2022/01/11 07:28:53;;;;;;;;;;;;;;;-3.74;87.94;101401.44;5597669;31;34471;-82
2022/01/11 07:31:57;;;;;;;;;;;;;;;-3.64;87.02;101402.16;5597589;31;34824;-82
2022/01/11 07:35:04;;;;;;;;;;;;;;;-3.42;85.22;101409.59;5597959;31;34556;-83
2022/01/11 07:38:09;;;;;;;;;;;;;;;-3.39;86.62;101411.25;5597364;31;34787;-82
2022/01/11 07:41:14;;;;;;;;;;;;;;;-3.28;84.23;101417.13;5597095;31;35158;-83
2022/01/11 07:44:24;;;;;;;;;;;;;;;-3.20;82.83;101417.84;5607795;31;34628;-83
2022/01/11 07:47:26;;;;;;;;;;;;;;;-2.92;80.46;101419.97;5598990;31;34149;-83
2022/01/11 07:50:32;;;;;;;;;;;;;;;-2.66;80.12;101421.25;5597399;31;34641;-83
2022/01/11 07:53:35;;;;;;;;;;;;;;;-2.74;79.96;101425.69;5597299;31;34551;-82
2022/01/11 07:56:38;;;;;;;;;;;;;;;-2.64;78.85;101429.81;5597031;31;34638;-82
2022/01/11 07:59:42;;;;;;;;;;;;;;;-2.47;77.28;101423.47;5598564;31;34073;-82
2022/01/11 08:02:57;;;;;;;;;;;;;;;-2.37;76.14;101436.22;5598875;31;34332;-83
2022/01/11 08:06:01;;;;;;;;;;;;;;;-2.28;74.96;101440.34;5602060;31;34430;-83
2022/01/11 08:09:04;;;;;;;;;;;;;;;-2.19;74.54;101434.97;5600563;31;34963;-84
2022/01/11 08:12:12;;;;;;;;;;;;;;;-2.26;75.18;101448.97;5597954;31;34200;-84
2022/01/11 08:15:15;;;;;;;;;;;;;;;-2.11;75.36;101452.12;5597804;31;34296;-83
2022/01/11 08:18:25;;;;;;;;;;;;;;;-2.04;74.71;101458.91;5597696;31;34192;-83
2022/01/11 08:21:28;;;;;;;;;;;;;;;-1.97;74.23;101463.06;5597436;31;35083;-83
2022/01/11 08:24:33;;;;;;;;;;;;;;;-1.98;73.89;101458.78;5596761;31;35402;-83
2022/01/11 08:27:35;;;;;;;;;;;;;;;-1.89;72.84;101457.72;5597298;31;35718;-83
2022/01/11 08:30:38;;;;;;;;;;;;;;;-1.84;72.75;101460.19;5597247;31;34610;-83
2022/01/11 08:33:42;;;;;;;;;;;;;;;-1.87;73.25;101467.19;5597134;31;34436;-83
2022/01/11 08:36:48;;;;;;;;;;;;;;;-1.88;74.17;101464.59;5596979;31;34297;-83
2022/01/11 08:39:51;;;;;;;;;;;;;;;-1.86;73.36;101468.88;5596660;31;34923;-85
2022/01/11 08:42:57;;;;;;;;;;;;;;;-1.82;73.49;101477.47;5597691;31;34501;-83
2022/01/11 08:46:04;;;;;;;;;;;;;;;-1.73;72.00;101471.19;5597435;31;34104;-83
2022/01/11 08:49:08;;;;;;;;;;;;;;;-1.70;71.62;101473.75;5597034;31;35489;-84
2022/01/11 08:52:14;;;;;;;;;;;;;;;-1.56;71.82;101478.63;5599277;31;34742;-83
2022/01/11 08:55:18;;;;;;;;;;;;;;;-1.64;72.14;101473.63;5584436;31;34478;-83
2022/01/11 08:58:22;;;;;;;;;;;;;;;-1.57;71.85;101479.50;5596465;31;35220;-83
2022/01/11 09:01:27;;;;;;;;;;;;;;;-1.58;71.55;101483.84;5596800;31;34032;-83
2022/01/11 09:04:30;;;;;;;;;;;;;;;-1.49;71.37;101493.19;5597625;31;34519;-83
2022/01/11 09:07:33;;;;;;;;;;;;;;;-1.35;69.93;101492.88;5611727;31;34948;-83
2022/01/11 09:10:36;;;;;;;;;;;;;;;-1.35;70.13;101498.06;5617435;31;34281;-82
2022/01/11 09:13:42;;;;;;;;;;;;;;;-1.30;70.10;101492.75;5619403;31;34282;-83
2022/01/11 09:16:46;;;;;;;;;;;;;;;-1.23;69.01;101503.84;5617775;31;34792;-82
2022/01/11 09:19:49;;;;;;;;;;;;;;;-1.17;69.85;101493.31;5615838;31;34601;-83
2022/01/11 09:22:53;;;;;;;;;;;;;;;-1.18;70.27;101497.66;5615786;31;34360;-83
2022/01/11 09:25:57;;;;;;;;;;;;;;;-1.16;70.61;101495.88;5616089;31;35242;-82
2022/01/11 09:28:59;;;;;;;;;;;;;;;-1.06;68.87;101490.47;5616744;31;34507;-82
2022/01/11 09:32:03;;;;;;;;;;;;;;;-0.96;68.07;101487.59;5599238;31;34438;-82
2022/01/11 09:35:07;;;;;;;;;;;;;;;-0.81;67.28;101488.09;5596694;31;34295;-83
2022/01/11 09:38:16;;;;;;;;;;;;;;;-0.63;66.47;101485.06;5597284;31;34410;-83
2022/01/11 09:41:22;;;;;;;;;;;;;;;-0.70;67.55;101480.87;5596605;31;34747;-82
2022/01/11 09:44:38;;;;;;;;;;;;;;;-0.54;67.29;101476.12;5597315;31;34131;-82
2022/01/11 09:47:41;;;;;;;;;;;;;;;-0.39;67.00;101480.06;5595918;31;34419;-82
2022/01/11 09:50:48;;;;;;;;;;;;;;;-0.27;66.29;101478.03;5596414;31;34146;-83
2022/01/11 09:53:54;;;;;;;;;;;;;;;-0.17;65.97;101471.69;5611410;31;35571;-82
2022/01/11 09:56:58;;;;;;;;;;;;;;;-0.09;67.20;101469.72;5615790;31;34439;-82
2022/01/11 10:00:01;;;;;;;;;;;;;;;-0.03;66.52;101468.69;5616276;31;34430;-82
2022/01/11 10:03:06;;;;;;;;;;;;;;;0.16;65.29;101474.22;5618406;31;35019;-84
2022/01/11 10:06:13;;;;;;;;;;;;;;;0.15;63.79;101472.50;5596539;31;34267;-83
2022/01/11 10:09:18;;;;;;;;;;;;;;;0.22;63.66;101461.00;5595838;31;34835;-82
2022/01/11 10:12:22;;;;;;;;;;;;;;;0.28;64.02;101470.38;5595995;31;34993;-82
2022/01/11 10:15:26;;;;;;;;;;;;;;;0.36;64.34;101455.38;5598121;31;34099;-82
2022/01/11 10:18:37;;;;;;;;;;;;;;;0.47;62.57;101455.06;5617212;31;34650;-83
2022/01/11 10:21:41;;;;;;;;;;;;;;;0.40;63.46;101462.22;5615716;31;34870;-82
2022/01/11 10:24:45;;;;;;;;;;;;;;;0.51;62.55;101458.41;5600295;31;34126;-83
2022/01/11 10:27:57;;;;;;;;;;;;;;;0.52;62.32;101470.53;5597182;31;34521;-82
2022/01/11 10:31:00;;;;;;;;;;;;;;;0.54;61.31;101464.37;5600681;31;35483;-82
2022/01/11 10:34:04;;;;;;;;;;;;;;;0.61;61.88;101462.44;5596582;31;34857;-82
2022/01/11 10:37:09;;;;;;;;;;;;;;;0.72;61.72;101467.31;5597710;31;34319;-82
2022/01/11 10:40:15;;;;;;;;;;;;;;;0.60;62.73;101460.72;5606007;31;34611;-82
2022/01/11 10:43:20;;;;;;;;;;;;;;;0.67;62.25;101464.00;5597047;31;32847;-82
2022/01/11 10:46:47;;;;;;;;;;;;;;;0.68;62.47;101460.50;5596373;31;34440;-82
2022/01/11 10:49:54;;;;;;;;;;;;;;;0.74;63.33;101471.56;5595856;31;34716;-82
2022/01/11 10:52:58;;;;;;;;;;;;;;;0.89;61.58;101470.22;5598970;31;34021;-81
2022/01/11 10:56:06;;;;;;;;;;;;;;;0.97;62.09;101464.75;5595131;31;34487;-82
2022/01/11 10:59:19;;;;;;;;;;;;;;;1.04;61.44;101468.00;5595869;31;35193;-83
2022/01/11 11:02:26;;;;;;;;;;;;;;;1.15;62.14;101468.50;5597063;31;34723;-82
2022/01/11 11:05:33;;;;;;;;;;;;;;;1.05;61.94;101478.38;5594218;31;34505;-82
2022/01/11 11:08:44;;;;;;;;;;;;;;;1.11;60.51;101469.50;5597420;31;35281;-82
2022/01/11 11:12:07;;;;;;;;;;;;;;;1.04;61.14;101468.00;5596376;31;35112;-83
2022/01/11 11:15:14;;;;;;;;;;;;;;;1.14;62.21;101466.81;5595690;31;34526;-84
2022/01/11 11:18:41;;;;;;;;;;;;;;;1.21;61.96;101460.47;5596188;31;35487;-85
2022/01/11 11:21:45;;;;;;;;;;;;;;;1.27;62.12;101463.78;5601907;31;34900;-82
2022/01/11 11:24:47;;;;;;;;;;;;;;;1.32;61.02;101456.63;5615269;31;35180;-82
2022/01/11 11:27:49;;;;;;;;;;;;;;;1.38;61.24;101461.66;5615299;31;34798;-83
2022/01/11 11:30:52;;;;;;;;;;;;;;;1.42;61.58;101460.63;5615275;31;34582;-83
2022/01/11 11:33:55;;;;;;;;;;;;;;;1.44;61.10;101458.81;5615940;31;34929;-82
2022/01/11 11:37:00;;;;;;;;;;;;;;;1.32;60.28;101456.63;5615691;31;34783;-82
2022/01/11 11:40:08;;;;;;;;;;;;;;;1.41;60.73;101461.53;5618621;31;34571;-82
2022/01/11 11:43:12;;;;;;;;;;;;;;;1.31;60.03;101450.59;5601732;31;34674;-82
2022/01/11 11:46:37;;;;;;;;;;;;;;;1.41;60.18;101451.09;5594940;31;34617;-83
2022/01/11 11:49:47;;;;;;;;;;;;;;;1.28;61.55;101455.06;5594377;31;35480;-82
2022/01/11 11:52:52;;;;;;;;;;;;;;;1.41;61.05;101455.47;5595607;31;35394;-84
2022/01/11 11:56:13;;;;;;;;;;;;;;;1.45;59.94;101457.91;5596737;31;35107;-82
2022/01/11 11:59:18;;;;;;;;;;;;;;;1.44;60.56;101445.78;5595443;31;34704;-83
2022/01/11 12:02:35;;;;;;;;;;;;;;;1.53;59.81;101455.03;5594817;31;34390;-83
2022/01/11 12:05:39;;;;;;;;;;;;;;;1.45;60.75;101444.88;5597546;31;34264;-82
2022/01/11 12:08:43;;;;;;;;;;;;;;;1.50;60.56;101456.00;5597061;31;34784;-82
2022/01/11 12:11:51;;;;;;;;;;;;;;;1.49;60.60;101456.91;5595240;31;34936;-82
2022/01/11 12:14:53;;;;;;;;;;;;;;;1.60;59.49;101460.91;5596460;31;34257;-84
2022/01/11 12:17:59;;;;;;;;;;;;;;;1.61;60.66;101452.16;5596332;31;33831;-83
2022/01/11 12:21:02;;;;;;;;;;;;;;;1.59;60.51;101452.19;5599838;31;34414;-82
2022/01/11 12:24:07;;;;;;;;;;;;;;;1.68;59.75;101448.41;5598484;31;34392;-83
2022/01/11 12:27:10;;;;;;;;;;;;;;;1.75;59.25;101447.28;5598669;31;34003;-82
2022/01/11 12:30:16;;;;;;;;;;;;;;;1.73;59.05;101441.28;5596777;31;34461;-82
2022/01/11 12:33:29;;;;;;;;;;;;;;;1.83;59.17;101441.78;5597197;31;35324;-83
2022/01/11 12:36:54;;;;;;;;;;;;;;;1.79;60.11;101446.25;5596711;31;34824;-81
2022/01/11 12:40:19;;;;;;;;;;;;;;;1.79;59.59;101456.69;5597897;31;34422;-82
2022/01/11 12:43:40;;;;;;;;;;;;;;;1.88;59.72;101454.66;5603451;31;34119;-81
2022/01/11 12:46:49;;;;;;;;;;;;;;;1.93;58.32;101455.34;5615822;31;34630;-82
2022/01/11 12:50:02;;;;;;;;;;;;;;;1.98;58.77;101456.00;5603831;31;34733;-83
2022/01/11 12:53:05;;;;;;;;;;;;;;;1.99;58.83;101462.94;5616642;31;34399;-82
2022/01/11 12:56:08;;;;;;;;;;;;;;;1.93;57.94;101463.19;5600019;31;34229;-83
2022/01/11 12:59:10;;;;;;;;;;;;;;;1.93;59.52;101468.41;5596485;31;35515;-82
2022/01/11 13:02:14;;;;;;;;;;;;;;;2.06;58.32;101474.88;5600103;31;34921;-82
2022/01/11 13:05:21;;;;;;;;;;;;;;;2.09;57.51;101461.69;5615550;31;34264;-84
2022/01/11 13:08:27;;;;;;;;;;;;;;;2.06;58.13;101463.56;5615897;31;34901;-82
2022/01/11 13:11:32;;;;;;;;;;;;;;;2.07;58.29;101466.12;5616078;31;34562;-82
2022/01/11 13:14:41;;;;;;;;;;;;;;;2.18;57.58;101472.72;5616177;31;34278;-82
2022/01/11 13:17:48;;;;;;;;;;;;;;;2.12;57.38;101465.97;5617954;31;35229;-82
2022/01/11 13:21:12;;;;;;;;;;;;;;;2.12;56.95;101474.63;5618946;31;34541;-84
2022/01/11 13:27:23;;;;;;;;;;;;;;;2.00;57.52;101475.09;5616736;31;34528;-82
2022/01/11 13:30:33;;;;;;;;;;;;;;;1.93;57.38;101460.56;5607278;31;34296;-82
2022/01/11 13:33:39;;;;;;;;;;;;;;;1.85;57.44;101466.94;5610867;31;34681;-82
2022/01/11 13:36:47;;;;;;;;;;;;;;;1.79;58.80;101467.13;5615227;31;34583;-82
2022/01/11 13:39:54;;;;;;;;;;;;;;;1.77;57.89;101479.38;5605179;31;34894;-82
2022/01/11 13:43:00;;;;;;;;;;;;;;;1.73;58.31;101472.59;5599499;31;34229;-82
2022/01/11 13:46:13;;;;;;;;;;;;;;;1.70;58.50;101470.09;5599872;31;34584;-83
2022/01/11 13:49:18;;;;;;;;;;;;;;;1.75;58.38;101470.75;5598472;31;35239;-82
2022/01/11 13:52:23;;;;;;;;;;;;;;;1.70;58.69;101472.69;5597666;31;34828;-82
2022/01/11 13:55:27;;;;;;;;;;;;;;;1.75;58.10;101481.19;5600217;31;34345;-82
2022/01/11 13:58:37;;;;;;;;;;;;;;;1.75;57.89;101480.34;5616182;31;34565;-82
2022/01/11 14:01:41;;;;;;;;;;;;;;;1.74;58.05;101476.03;5617588;31;34537;-83
2022/01/11 14:04:48;;;;;;;;;;;;;;;1.70;58.55;101480.53;5616995;31;34655;-82
2022/01/11 14:07:56;;;;;;;;;;;;;;;1.67;57.75;101483.22;5600740;31;34712;-82
2022/01/11 14:11:08;;;;;;;;;;;;;;;1.70;57.47;101470.94;5595675;31;34777;-82
2022/01/11 14:14:11;;;;;;;;;;;;;;;1.63;57.57;101476.44;5595854;31;34533;-82
2022/01/11 14:17:35;;;;;;;;;;;;;;;1.66;57.36;101477.19;5595923;31;34069;-82
2022/01/11 14:20:46;;;;;;;;;;;;;;;1.44;58.77;101479.69;5596101;31;34448;-83
2022/01/11 14:23:52;;;;;;;;;;;;;;;1.39;58.12;101486.81;5596794;31;33830;-82
2022/01/11 14:26:54;;;;;;;;;;;;;;;1.30;58.87;101489.72;5596003;31;34170;-82
2022/01/11 14:29:57;;;;;;;;;;;;;;;1.26;59.82;101498.56;5595787;31;34384;-83
2022/01/11 14:32:59;;;;;;;;;;;;;;;1.32;58.56;101500.97;5595531;31;34240;-83
2022/01/11 14:36:19;;;;;;;;;;;;;;;1.27;59.00;101505.50;5595555;31;34419;-82
2022/01/11 14:39:22;;;;;;;;;;;;;;;1.17;61.05;101505.81;5596276;31;35462;-82
2022/01/11 14:42:33;;;;;;;;;;;;;;;1.02;60.33;101506.31;5595263;31;34329;-82
2022/01/11 14:45:37;;;;;;;;;;;;;;;0.98;59.62;101509.91;5595953;31;34218;-82
2022/01/11 14:48:42;;;;;;;;;;;;;;;0.98;60.11;101512.50;5593272;31;33987;-82
2022/01/11 14:51:51;;;;;;;;;;;;;;;0.95;59.41;101510.00;5595407;31;35102;-82
2022/01/11 14:54:57;;;;;;;;;;;;;;;0.83;60.02;101517.31;5595337;31;34343;-82
2022/01/11 14:58:02;;;;;;;;;;;;;;;0.66;60.65;101524.78;5594898;31;34137;-82
2022/01/11 15:01:07;;;;;;;;;;;;;;;0.69;59.80;101522.09;5597737;31;35721;-82
2022/01/11 15:04:20;;;;;;;;;;;;;;;0.67;60.30;101529.09;5597124;31;34823;-83
2022/01/11 15:07:26;;;;;;;;;;;;;;;0.69;60.81;101524.72;5593417;31;36413;-82
2022/01/11 15:10:30;;;;;;;;;;;;;;;0.76;60.68;101521.00;5595638;31;34900;-83
2022/01/11 15:13:37;;;;;;;;;;;;;;;0.72;61.64;101529.84;5595104;31;35482;-83
2022/01/11 15:16:45;;;;;;;;;;;;;;;0.75;60.71;101524.50;5595591;31;34664;-83
2022/01/11 15:19:47;;;;;;;;;;;;;;;0.72;60.16;101530.66;5594439;31;34283;-83
2022/01/11 15:22:50;;;;;;;;;;;;;;;0.95;58.97;101530.88;5593445;31;35587;-82
2022/01/11 15:25:55;;;;;;;;;;;;;;;1.08;58.08;101532.16;5604427;31;34816;-82
2022/01/11 15:28:58;;;;;;;;;;;;;;;0.84;58.95;101539.88;5609357;31;35077;-82
2022/01/11 15:32:04;;;;;;;;;;;;;;;0.71;59.58;101551.56;5615988;31;34698;-82
2022/01/11 15:35:07;;;;;;;;;;;;;;;0.87;58.43;101544.97;5608073;31;34008;-82
2022/01/11 15:38:12;;;;;;;;;;;;;;;0.61;59.44;101544.03;5600932;31;34921;-82
2022/01/11 15:41:16;;;;;;;;;;;;;;;0.41;60.46;101546.34;5616256;31;34914;-82
2022/01/11 15:44:19;;;;;;;;;;;;;;;0.36;60.49;101556.06;5588853;31;34963;-82
2022/01/11 15:47:23;;;;;;;;;;;;;;;0.42;59.97;101548.94;5595825;31;34667;-82
2022/01/11 15:50:28;;;;;;;;;;;;;;;0.51;59.91;101553.00;5596473;31;34504;-83
2022/01/11 15:53:31;;;;;;;;;;;;;;;0.12;62.40;101550.66;5597043;31;35341;-82
2022/01/11 15:56:34;;;;;;;;;;;;;;;-0.01;63.78;101561.41;5597947;31;34706;-83
2022/01/11 15:59:36;;;;;;;;;;;;;;;-0.01;64.11;101558.81;5609326;31;35160;-82
2022/01/11 16:02:39;;;;;;;;;;;;;;;-0.03;64.83;101563.19;5616799;31;34708;-82